KRKR Airport (Robert S Kerr) Information

FAA: RKR - ICAO: KRKR

KRKR Airport Location

State Oklahoma
County Le Flore
City Poteau
KRKR Airport is 2 miles south of Poteau, OK.
Latitude 35-01-17.9000N
Longitude 094-37-16.5000W
Elevation 450ft

KRKR Airport METARs

METAR KRKR 251555Z AUTO 00000KT 10SM CLR 18/11 A3004 RMK AO2
Altimeter 30.04"
Temperature 18.0°C (64.4°F)
Wind 0° at 0KT
Clouds Skies are clear.
Visibility 10.0mi
Time observed: 2021-10-25T15:55:00Z

KRKR Airport Details

Status Operational
Activation February 1964
Ownership Public
Usage Public
Chart MEMPHIS
ATC on-site No
Beacon schedule sunset-sunrise
Beacon color clear green

KRKR Airport Contacts

Owner CITY OF POTEAU
Owner address CITY HALL, 111 PETERS ST., POTEAU, OK 74953
Owner phone 918-647-4191
Manager KELLEY BABIN
Manager address 16245 AVIAN AVE., CLAREMORE, OK 74017
Manager phone 918-521-1148

KRKR Airport (Robert S Kerr) Radio Frequencies

KRKR (Airport) Radio Frequencies

UNICOM 122.8
Common traffic advisory frequency (CTAF) 122.8